Time;durP1;ratioP1;P1;durP2;ratioP2;P2;SDS_P1;SDS_P2;PMS_P1;PMS_P2;Temp;Humidity;BMP_temperature;BMP_pressure;BME280_temperature;BME280_humidity;BME280_pressure;Samples;Min_cycle;Max_cycle;Signal;HPM_P1;HPM_P2
2023/01/11 00:00:14;;;;;;;19.05;8.27;;;;;;;;;;4961405;28;20069;-71
2023/01/11 00:03:02;;;;;;;18.67;7.95;;;;;;;;;;4952881;28;20067;-69
2023/01/11 00:05:29;;;;;;;18.70;8.20;;;;;;;;;;4966112;28;20054;-66
2023/01/11 00:07:54;;;;;;;15.65;7.60;;;;;;;;;;4957304;28;20154;-70
2023/01/11 00:10:21;;;;;;;18.20;8.13;;;;;;;;;;4957557;28;20043;-69
2023/01/11 00:12:47;;;;;;;13.98;7.20;;;;;;;;;;4953328;28;20157;-70
2023/01/11 00:15:14;;;;;;;17.17;7.53;;;;;;;;;;4954283;28;20083;-66
2023/01/11 00:17:40;;;;;;;17.98;7.40;;;;;;;;;;4954013;28;20651;-69
2023/01/11 00:20:08;;;;;;;12.20;6.68;;;;;;;;;;4960821;28;20048;-75
2023/01/11 00:22:34;;;;;;;14.32;7.82;;;;;;;;;;4960218;28;20051;-67
2023/01/11 00:25:00;;;;;;;15.05;7.60;;;;;;;;;;4961169;28;20121;-70
2023/01/11 00:27:26;;;;;;;16.60;7.30;;;;;;;;;;4963152;28;20477;-67
2023/01/11 00:29:52;;;;;;;17.33;7.35;;;;;;;;;;4965347;28;20051;-75
2023/01/11 00:32:18;;;;;;;11.93;7.68;;;;;;;;;;4963880;28;20062;-78
2023/01/11 00:34:44;;;;;;;11.75;7.32;;;;;;;;;;4959886;28;20042;-69
2023/01/11 00:37:10;;;;;;;12.90;6.70;;;;;;;;;;4955123;28;20051;-70
2023/01/11 00:39:36;;;;;;;12.60;6.95;;;;;;;;;;4957874;28;20049;-69
2023/01/11 00:50:15;;;;;;;13.50;6.63;;;;;;;;;;4948006;28;20051;-77
2023/01/11 00:52:41;;;;;;;14.88;6.63;;;;;;;;;;4959585;28;20376;-67
2023/01/11 00:55:08;;;;;;;13.07;6.25;;;;;;;;;;4955517;28;20043;-71
2023/01/11 00:57:34;;;;;;;12.63;6.75;;;;;;;;;;4958498;28;20082;-73
2023/01/11 01:00:00;;;;;;;17.05;6.13;;;;;;;;;;4957301;28;20058;-67
2023/01/11 01:02:26;;;;;;;13.50;6.32;;;;;;;;;;4959417;28;20131;-70
2023/01/11 01:04:52;;;;;;;11.93;6.78;;;;;;;;;;4957605;28;20047;-67
2023/01/11 01:07:18;;;;;;;12.10;6.38;;;;;;;;;;4961240;28;20481;-70
2023/01/11 01:09:44;;;;;;;12.18;6.32;;;;;;;;;;4962085;28;20054;-74
2023/01/11 01:12:10;;;;;;;12.30;5.95;;;;;;;;;;4960111;28;20046;-70
2023/01/11 01:14:36;;;;;;;10.73;5.93;;;;;;;;;;4966866;28;20070;-77
2023/01/11 01:17:07;;;;;;;12.07;6.32;;;;;;;;;;4956982;28;20051;-70
2023/01/11 01:19:37;;;;;;;13.02;6.80;;;;;;;;;;4960312;28;20051;-73
2023/01/11 01:22:04;;;;;;;14.60;6.78;;;;;;;;;;4959877;28;20147;-71
2023/01/11 01:24:30;;;;;;;12.48;6.75;;;;;;;;;;4952683;28;20047;-66
2023/01/11 01:26:57;;;;;;;15.70;6.25;;;;;;;;;;4953699;28;20110;-72
2023/01/11 01:29:24;;;;;;;10.95;6.38;;;;;;;;;;4960666;28;20528;-69
2023/01/11 01:31:50;;;;;;;12.85;6.70;;;;;;;;;;4957013;28;20054;-67
2023/01/11 01:34:17;;;;;;;10.45;6.63;;;;;;;;;;4953064;28;20059;-68
2023/01/11 01:36:43;;;;;;;10.82;6.35;;;;;;;;;;4958167;28;20043;-70
2023/01/11 01:39:10;;;;;;;11.40;6.22;;;;;;;;;;4958784;28;20129;-68
2023/01/11 01:41:36;;;;;;;13.77;7.60;;;;;;;;;;4952242;28;20104;-66
2023/01/11 01:44:41;;;;;;;14.02;6.18;;;;;;;;;;4959939;28;20050;-79
2023/01/11 01:47:07;;;;;;;13.93;6.20;;;;;;;;;;4960092;28;20058;-73
2023/01/11 01:49:33;;;;;;;14.40;6.57;;;;;;;;;;4948915;28;20055;-70
2023/01/11 01:51:59;;;;;;;13.43;6.90;;;;;;;;;;4962256;28;20066;-71
2023/01/11 01:54:31;;;;;;;12.13;6.65;;;;;;;;;;4960158;28;20158;-67
2023/01/11 01:57:04;;;;;;;8.65;5.63;;;;;;;;;;4959460;28;20070;-66
2023/01/11 01:59:32;;;;;;;13.13;7.55;;;;;;;;;;4953643;28;20050;-77
2023/01/11 02:01:59;;;;;;;12.30;6.55;;;;;;;;;;4952300;28;20053;-74
2023/01/11 02:04:40;;;;;;;13.40;7.07;;;;;;;;;;4960069;28;20061;-69
2023/01/11 02:07:20;;;;;;;14.73;6.90;;;;;;;;;;4964647;28;20058;-75
2023/01/11 02:10:01;;;;;;;20.52;7.22;;;;;;;;;;4954428;28;20526;-68
2023/01/11 02:12:31;;;;;;;13.95;6.95;;;;;;;;;;4951751;28;20118;-68
2023/01/11 02:14:59;;;;;;;12.38;6.93;;;;;;;;;;4957137;28;20058;-70
2023/01/11 02:17:25;;;;;;;14.32;7.15;;;;;;;;;;4977624;28;20150;-76
2023/01/11 02:19:57;;;;;;;14.05;6.78;;;;;;;;;;4961357;28;20061;-72
2023/01/11 02:22:35;;;;;;;17.17;7.50;;;;;;;;;;4978420;28;20137;-67
2023/01/11 02:25:28;;;;;;;12.32;6.65;;;;;;;;;;4959223;28;20042;-67
2023/01/11 02:28:19;;;;;;;14.25;6.65;;;;;;;;;;4964886;28;20082;-68
2023/01/11 02:31:09;;;;;;;12.07;6.38;;;;;;;;;;4953229;28;20630;-71
2023/01/11 02:33:51;;;;;;;10.35;6.68;;;;;;;;;;4954505;28;20059;-69
2023/01/11 02:36:35;;;;;;;9.88;6.57;;;;;;;;;;4959778;28;20134;-74
2023/01/11 02:39:18;;;;;;;13.10;6.15;;;;;;;;;;4959255;28;20046;-80
2023/01/11 02:45:00;;;;;;;13.77;6.75;;;;;;;;;;4959092;28;20133;-68
2023/01/11 02:47:49;;;;;;;16.30;6.78;;;;;;;;;;4955039;28;20113;-72
2023/01/11 02:50:38;;;;;;;11.13;6.50;;;;;;;;;;4959376;28;20043;-77
2023/01/11 02:53:32;;;;;;;11.27;6.60;;;;;;;;;;4952099;28;20051;-68
2023/01/11 02:56:06;;;;;;;13.65;6.85;;;;;;;;;;4963909;28;20051;-78
2023/01/11 02:58:36;;;;;;;11.23;6.00;;;;;;;;;;4960902;28;20125;-74
2023/01/11 03:01:02;;;;;;;14.05;6.20;;;;;;;;;;4958185;28;20055;-68
2023/01/11 03:03:29;;;;;;;13.70;6.45;;;;;;;;;;4956625;28;20051;-67
2023/01/11 03:05:54;;;;;;;13.23;6.38;;;;;;;;;;4959198;28;20461;-67
2023/01/11 03:08:23;;;;;;;10.40;6.03;;;;;;;;;;4961626;28;20129;-73
2023/01/11 03:11:06;;;;;;;9.60;5.82;;;;;;;;;;4951927;28;20062;-74
2023/01/11 03:13:32;;;;;;;10.65;5.93;;;;;;;;;;4960174;28;20047;-70
2023/01/11 03:16:10;;;;;;;14.30;5.90;;;;;;;;;;4962171;28;20081;-72
2023/01/11 03:18:56;;;;;;;15.27;6.53;;;;;;;;;;4959415;28;20081;-68
2023/01/11 03:21:56;;;;;;;9.77;5.95;;;;;;;;;;4958571;28;20102;-69
2023/01/11 03:24:22;;;;;;;12.20;5.85;;;;;;;;;;4965688;28;20066;-68
2023/01/11 03:27:20;;;;;;;11.15;6.28;;;;;;;;;;4962285;28;20366;-68
2023/01/11 03:29:54;;;;;;;10.95;5.70;;;;;;;;;;4960775;28;20433;-70
2023/01/11 03:32:34;;;;;;;9.27;5.57;;;;;;;;;;4954092;28;20677;-77
2023/01/11 03:35:09;;;;;;;12.02;5.40;;;;;;;;;;4954963;28;20170;-72
2023/01/11 03:38:03;;;;;;;10.25;5.40;;;;;;;;;;4965221;28;20054;-70
2023/01/11 03:40:34;;;;;;;11.43;5.32;;;;;;;;;;4956678;28;20129;-70
2023/01/11 03:43:11;;;;;;;12.98;5.88;;;;;;;;;;4956521;28;20051;-66
2023/01/11 03:46:02;;;;;;;10.48;4.72;;;;;;;;;;4961095;28;20051;-67
2023/01/11 03:48:35;;;;;;;10.13;4.70;;;;;;;;;;4959010;28;20062;-72
2023/01/11 03:51:04;;;;;;;10.55;4.95;;;;;;;;;;4956465;28;20134;-66
2023/01/11 03:53:34;;;;;;;8.18;4.85;;;;;;;;;;4958872;28;20501;-67
2023/01/11 03:56:03;;;;;;;8.93;4.75;;;;;;;;;;4960310;28;20058;-67
2023/01/11 03:58:29;;;;;;;11.57;4.80;;;;;;;;;;4962590;28;20062;-74
2023/01/11 04:00:56;;;;;;;7.88;4.00;;;;;;;;;;4952972;28;20051;-70
2023/01/11 04:03:22;;;;;;;12.45;3.97;;;;;;;;;;4960733;28;20046;-67
2023/01/11 04:05:52;;;;;;;6.60;3.53;;;;;;;;;;4973194;28;20051;-68
2023/01/11 04:08:18;;;;;;;7.35;3.92;;;;;;;;;;4955812;28;20485;-77
2023/01/11 04:10:44;;;;;;;8.07;3.80;;;;;;;;;;4953463;28;20051;-68
2023/01/11 04:13:10;;;;;;;8.77;4.15;;;;;;;;;;4958007;28;20062;-68
2023/01/11 04:15:36;;;;;;;6.72;3.45;;;;;;;;;;4963285;28;20110;-67
2023/01/11 04:18:05;;;;;;;5.45;3.35;;;;;;;;;;4962246;28;20461;-67
2023/01/11 04:20:37;;;;;;;8.98;3.40;;;;;;;;;;4964187;28;20142;-69
2023/01/11 04:23:08;;;;;;;5.97;3.35;;;;;;;;;;4951374;28;20078;-71
2023/01/11 04:25:34;;;;;;;6.20;3.70;;;;;;;;;;4956965;28;20067;-74
2023/01/11 04:28:00;;;;;;;9.63;3.17;;;;;;;;;;4952326;28;20517;-69
2023/01/11 04:30:26;;;;;;;6.82;3.33;;;;;;;;;;4953964;28;20463;-73
2023/01/11 04:32:52;;;;;;;6.72;2.95;;;;;;;;;;4952457;28;20061;-74
2023/01/11 04:35:18;;;;;;;5.15;2.17;;;;;;;;;;4960124;28;20070;-69
2023/01/11 04:37:44;;;;;;;5.53;2.35;;;;;;;;;;4955221;28;20051;-70
2023/01/11 04:40:10;;;;;;;8.02;2.50;;;;;;;;;;4958584;28;20055;-68
2023/01/11 04:42:36;;;;;;;3.47;2.47;;;;;;;;;;4960641;28;20043;-72
2023/01/11 04:45:04;;;;;;;4.43;2.22;;;;;;;;;;4960270;28;20055;-72
2023/01/11 04:47:31;;;;;;;7.45;2.83;;;;;;;;;;4963514;28;20101;-66
2023/01/11 04:49:57;;;;;;;7.70;3.00;;;;;;;;;;4956130;28;20047;-71
2023/01/11 04:52:23;;;;;;;4.32;2.40;;;;;;;;;;4959310;28;20042;-65
2023/01/11 04:54:51;;;;;;;4.07;2.40;;;;;;;;;;4960064;28;20039;-72
2023/01/11 04:57:17;;;;;;;4.88;2.30;;;;;;;;;;4965052;28;20146;-67
2023/01/11 04:59:45;;;;;;;2.97;1.88;;;;;;;;;;4961146;28;20054;-75
2023/01/11 05:02:12;;;;;;;4.32;2.10;;;;;;;;;;4957574;28;20043;-65
2023/01/11 05:04:38;;;;;;;4.03;2.30;;;;;;;;;;4963918;28;20055;-68
2023/01/11 05:07:06;;;;;;;6.57;2.30;;;;;;;;;;4963199;28;20101;-70
2023/01/11 05:09:32;;;;;;;3.72;1.98;;;;;;;;;;4962113;28;20057;-67
2023/01/11 05:11:58;;;;;;;5.63;2.20;;;;;;;;;;4954943;28;20109;-78
2023/01/11 05:14:24;;;;;;;3.42;1.98;;;;;;;;;;4964435;28;20109;-72
2023/01/11 05:16:50;;;;;;;3.25;2.28;;;;;;;;;;4957879;28;20058;-68
2023/01/11 05:19:16;;;;;;;4.63;2.20;;;;;;;;;;4949529;28;20062;-77
2023/01/11 05:21:42;;;;;;;3.33;1.90;;;;;;;;;;4963698;28;20496;-73
2023/01/11 05:24:12;;;;;;;3.58;2.00;;;;;;;;;;4960427;28;20066;-67
2023/01/11 05:26:40;;;;;;;4.22;2.17;;;;;;;;;;4961135;28;20102;-77
2023/01/11 05:29:09;;;;;;;4.38;1.92;;;;;;;;;;4960250;28;20092;-78
2023/01/11 05:31:37;;;;;;;4.60;2.30;;;;;;;;;;4959086;28;20050;-66
2023/01/11 05:34:05;;;;;;;5.85;2.33;;;;;;;;;;4960412;28;20129;-69
2023/01/11 05:36:32;;;;;;;3.97;2.20;;;;;;;;;;4958461;28;20102;-71
2023/01/11 05:38:58;;;;;;;5.13;2.25;;;;;;;;;;4960774;28;20070;-67
2023/01/11 05:41:26;;;;;;;3.45;2.47;;;;;;;;;;4955343;28;20047;-70
2023/01/11 05:46:39;;;;;;;4.90;2.88;;;;;;;;;;4953099;28;20141;-70
2023/01/11 05:49:06;;;;;;;4.45;2.40;;;;;;;;;;4952244;28;20062;-68
2023/01/11 05:51:32;;;;;;;5.25;2.55;;;;;;;;;;4954541;28;20055;-71
2023/01/11 05:54:01;;;;;;;3.40;2.50;;;;;;;;;;4953014;28;20050;-74
2023/01/11 05:56:27;;;;;;;4.05;2.35;;;;;;;;;;4951182;28;20059;-68
2023/01/11 05:58:53;;;;;;;4.00;2.85;;;;;;;;;;4956880;28;20528;-70
2023/01/11 06:01:22;;;;;;;5.38;2.50;;;;;;;;;;4953158;28;20046;-73
2023/01/11 06:03:48;;;;;;;4.15;2.47;;;;;;;;;;4954338;28;20043;-70
2023/01/11 06:06:15;;;;;;;5.65;2.92;;;;;;;;;;4955489;28;20081;-76
2023/01/11 06:08:41;;;;;;;5.75;2.90;;;;;;;;;;4954721;28;20050;-68
2023/01/11 06:11:07;;;;;;;5.45;2.60;;;;;;;;;;4951301;28;20047;-73
2023/01/11 06:13:34;;;;;;;5.43;2.92;;;;;;;;;;4954463;28;20034;-70
2023/01/11 06:16:05;;;;;;;3.88;2.78;;;;;;;;;;4957481;28;20169;-69
2023/01/11 06:18:37;;;;;;;6.05;3.20;;;;;;;;;;4951705;28;20058;-72
2023/01/11 06:21:04;;;;;;;4.15;2.90;;;;;;;;;;4955759;28;20583;-75
2023/01/11 06:23:34;;;;;;;5.22;2.83;;;;;;;;;;4950196;28;20116;-70
2023/01/11 06:26:02;;;;;;;5.40;3.13;;;;;;;;;;4957460;28;20042;-74
2023/01/11 06:28:28;;;;;;;7.13;3.28;;;;;;;;;;4955615;28;20055;-74
2023/01/11 06:30:56;;;;;;;5.57;2.92;;;;;;;;;;4953200;28;20128;-69
2023/01/11 06:33:24;;;;;;;4.95;2.97;;;;;;;;;;4961439;28;20043;-72
2023/01/11 06:35:51;;;;;;;4.35;2.50;;;;;;;;;;4955646;28;20633;-67
2023/01/11 06:38:18;;;;;;;5.22;3.30;;;;;;;;;;4951701;28;20533;-77
2023/01/11 06:40:52;;;;;;;6.57;3.17;;;;;;;;;;4958036;28;20047;-70
2023/01/11 06:43:18;;;;;;;4.77;3.10;;;;;;;;;;4959676;28;20051;-70
2023/01/11 06:45:44;;;;;;;4.18;2.90;;;;;;;;;;4959864;28;20390;-73
2023/01/11 06:48:10;;;;;;;6.53;2.92;;;;;;;;;;4957476;28;20046;-74
2023/01/11 06:50:36;;;;;;;6.47;2.63;;;;;;;;;;4962020;28;20358;-69
2023/01/11 06:53:02;;;;;;;6.45;3.10;;;;;;;;;;4962703;28;20039;-71
2023/01/11 06:55:29;;;;;;;4.70;3.03;;;;;;;;;;4959082;28;20428;-69
2023/01/11 06:57:55;;;;;;;4.63;2.85;;;;;;;;;;4962809;28;20054;-70
2023/01/11 07:00:21;;;;;;;5.18;3.25;;;;;;;;;;4958042;28;20057;-68
2023/01/11 07:02:48;;;;;;;4.88;3.20;;;;;;;;;;4959799;28;20393;-76
2023/01/11 07:05:14;;;;;;;5.53;2.92;;;;;;;;;;4958488;28;20255;-72
2023/01/11 07:07:42;;;;;;;4.82;3.08;;;;;;;;;;4961056;28;20070;-70
2023/01/11 07:10:15;;;;;;;4.32;2.70;;;;;;;;;;4963273;28;20258;-69
2023/01/11 07:12:41;;;;;;;4.80;3.10;;;;;;;;;;4954412;28;20703;-69
2023/01/11 07:15:09;;;;;;;6.82;2.97;;;;;;;;;;4963166;28;20464;-68
2023/01/11 07:17:35;;;;;;;7.03;2.90;;;;;;;;;;4957515;28;20383;-73
2023/01/11 07:20:02;;;;;;;4.38;3.10;;;;;;;;;;4963740;28;20453;-70
2023/01/11 07:22:29;;;;;;;4.03;2.70;;;;;;;;;;4959129;28;20058;-69
2023/01/11 07:24:54;;;;;;;6.15;2.85;;;;;;;;;;4959754;28;20080;-72
2023/01/11 07:27:20;;;;;;;5.15;3.10;;;;;;;;;;4957508;28;20054;-66
2023/01/11 07:29:46;;;;;;;5.38;2.92;;;;;;;;;;4959525;28;20054;-74
2023/01/11 07:32:13;;;;;;;5.38;3.15;;;;;;;;;;4960646;28;20588;-75
2023/01/11 07:34:39;;;;;;;4.82;3.25;;;;;;;;;;4957573;28;20050;-70
2023/01/11 07:37:07;;;;;;;5.72;3.15;;;;;;;;;;4957689;28;20050;-68
2023/01/11 07:39:33;;;;;;;6.18;3.17;;;;;;;;;;4958960;28;20064;-72
2023/01/11 07:44:43;;;;;;;6.60;3.15;;;;;;;;;;4958084;28;20471;-65
2023/01/11 07:47:09;;;;;;;5.60;3.08;;;;;;;;;;4954102;28;20130;-69
2023/01/11 07:49:35;;;;;;;7.40;3.40;;;;;;;;;;4959420;28;20477;-67
2023/01/11 07:52:01;;;;;;;11.27;3.72;;;;;;;;;;4959207;28;20051;-68
2023/01/11 07:54:27;;;;;;;9.38;3.70;;;;;;;;;;4960599;28;20047;-72
2023/01/11 07:56:55;;;;;;;5.80;3.28;;;;;;;;;;4962556;28;20062;-70
2023/01/11 07:59:21;;;;;;;7.18;3.85;;;;;;;;;;4960548;28;20054;-67
2023/01/11 08:01:48;;;;;;;4.82;3.08;;;;;;;;;;4953599;28;20062;-70
2023/01/11 08:04:14;;;;;;;5.32;3.22;;;;;;;;;;4952458;28;20039;-69
2023/01/11 08:06:40;;;;;;;4.25;3.28;;;;;;;;;;4956984;28;20035;-69
2023/01/11 08:09:07;;;;;;;5.72;3.30;;;;;;;;;;4958444;28;20059;-74
2023/01/11 08:17:03;;;;;;;11.70;3.38;;;;;;;;;;4955396;28;20051;-69
2023/01/11 08:19:29;;;;;;;8.35;2.78;;;;;;;;;;4967318;28;20427;-66
2023/01/11 08:21:55;;;;;;;6.90;2.80;;;;;;;;;;4961362;28;20050;-74
2023/01/11 08:24:20;;;;;;;4.18;2.80;;;;;;;;;;4954282;28;20039;-67
2023/01/11 08:26:47;;;;;;;7.32;3.00;;;;;;;;;;4962584;28;20051;-72
2023/01/11 08:29:13;;;;;;;11.02;3.03;;;;;;;;;;4959909;28;20055;-71
2023/01/11 08:31:43;;;;;;;5.50;2.90;;;;;;;;;;4962247;28;20129;-67
2023/01/11 08:34:08;;;;;;;7.18;3.35;;;;;;;;;;4962217;28;20146;-70
2023/01/11 08:36:35;;;;;;;12.20;3.15;;;;;;;;;;4972522;28;20050;-68
2023/01/11 08:39:01;;;;;;;6.20;3.22;;;;;;;;;;4957766;28;20497;-67
2023/01/11 08:41:27;;;;;;;21.55;3.40;;;;;;;;;;4958432;28;20101;-67
2023/01/11 08:43:53;;;;;;;7.28;3.05;;;;;;;;;;4961195;28;20055;-79
2023/01/11 08:46:19;;;;;;;7.75;4.13;;;;;;;;;;4958203;28;20062;-71
2023/01/11 08:48:48;;;;;;;6.03;3.50;;;;;;;;;;4956188;28;20351;-72
2023/01/11 08:51:14;;;;;;;4.88;2.85;;;;;;;;;;4960808;28;20039;-72
2023/01/11 08:53:40;;;;;;;7.50;3.30;;;;;;;;;;4954421;28;20194;-69
2023/01/11 08:56:07;;;;;;;6.32;3.10;;;;;;;;;;4957457;28;20056;-72
2023/01/11 08:58:33;;;;;;;6.10;3.10;;;;;;;;;;4953851;28;20066;-69
2023/01/11 09:01:01;;;;;;;5.88;3.10;;;;;;;;;;4957063;28;20051;-67
2023/01/11 09:03:28;;;;;;;6.45;3.45;;;;;;;;;;4956240;28;20157;-68
2023/01/11 09:05:58;;;;;;;7.93;2.38;;;;;;;;;;4960448;28;20062;-74
2023/01/11 09:08:24;;;;;;;4.43;2.10;;;;;;;;;;4956263;28;20060;-66
2023/01/11 09:10:50;;;;;;;4.63;1.83;;;;;;;;;;4960103;28;20058;-67
2023/01/11 09:13:16;;;;;;;3.15;1.98;;;;;;;;;;4957391;28;20046;-77
2023/01/11 09:15:45;;;;;;;6.60;1.90;;;;;;;;;;4959154;28;20058;-70
2023/01/11 09:18:14;;;;;;;4.65;1.60;;;;;;;;;;4962082;28;20806;-82
2023/01/11 09:20:40;;;;;;;4.40;1.60;;;;;;;;;;4961477;28;20215;-69
2023/01/11 09:23:06;;;;;;;2.47;1.40;;;;;;;;;;4958567;28;20039;-78
2023/01/11 09:25:33;;;;;;;2.17;1.33;;;;;;;;;;4960626;28;20563;-72
2023/01/11 09:27:58;;;;;;;2.28;1.60;;;;;;;;;;4957426;28;20039;-69
2023/01/11 09:30:24;;;;;;;3.47;1.50;;;;;;;;;;4961221;28;20492;-73
2023/01/11 09:32:51;;;;;;;5.18;2.10;;;;;;;;;;4956638;28;20058;-73
2023/01/11 09:35:18;;;;;;;5.72;1.85;;;;;;;;;;4959152;28;20059;-69
2023/01/11 09:37:53;;;;;;;5.65;2.20;;;;;;;;;;4950922;28;20290;-68
2023/01/11 09:40:48;;;;;;;5.18;3.25;;;;;;;;;;4951870;28;20403;-73
2023/01/11 09:43:15;;;;;;;;;;;;;;;;;;4954112;28;20464;-68
2023/01/11 09:45:50;;;;;;;3.88;2.47;;;;;;;;;;4959826;28;19922;-67
2023/01/11 09:48:27;;;;;;;;;;;;;;;;;;4959418;28;20066;-68
2023/01/11 09:50:54;;;;;;;4.35;2.33;;;;;;;;;;4965390;28;19933;-71
2023/01/11 09:53:29;;;;;;;5.82;2.28;;;;;;;;;;4958774;28;20074;-67
2023/01/11 09:55:59;;;;;;;9.45;2.30;;;;;;;;;;4956958;28;20039;-76
2023/01/11 09:58:37;;;;;;;3.42;2.20;;;;;;;;;;4959728;28;20043;-70
2023/01/11 10:01:33;;;;;;;7.50;2.40;;;;;;;;;;4954220;28;20055;-68
2023/01/11 10:04:39;;;;;;;11.77;3.47;;;;;;;;;;4964275;28;20133;-76
2023/01/11 10:07:52;;;;;;;7.95;2.50;;;;;;;;;;4955854;28;20042;-66
2023/01/11 10:10:21;;;;;;;6.40;1.45;;;;;;;;;;4952639;28;20515;-66
2023/01/11 10:12:59;;;;;;;7.47;1.85;;;;;;;;;;4959532;28;20045;-72
2023/01/11 10:15:37;;;;;;;5.25;1.70;;;;;;;;;;4957115;28;20055;-69
2023/01/11 10:18:28;;;;;;;20.80;2.10;;;;;;;;;;4959630;28;20116;-70
2023/01/11 10:21:09;;;;;;;3.78;2.08;;;;;;;;;;4959224;28;20074;-76
2023/01/11 10:24:11;;;;;;;8.73;2.50;;;;;;;;;;4960404;28;20079;-67
2023/01/11 10:26:41;;;;;;;5.97;2.72;;;;;;;;;;4954940;28;20454;-67
2023/01/11 10:34:58;;;;;;;3.53;1.70;;;;;;;;;;4952957;28;20047;-67
2023/01/11 10:37:53;;;;;;;7.20;1.90;;;;;;;;;;4956336;28;20097;-72
2023/01/11 10:40:39;;;;;;;;;;;;;;;;;;4961663;28;20057;-70
2023/01/11 10:43:21;;;;;;;6.15;2.40;;;;;;;;;;4963465;28;19926;-68
2023/01/11 10:45:54;;;;;;;6.75;1.60;;;;;;;;;;4963726;28;20699;-70
2023/01/11 10:48:23;;;;;;;2.78;1.50;;;;;;;;;;4954169;28;20046;-81
2023/01/11 10:51:15;;;;;;;4.13;1.40;;;;;;;;;;4960395;28;20058;-67
2023/01/11 10:54:02;;;;;;;2.13;1.30;;;;;;;;;;4951649;28;20099;-80
2023/01/11 10:56:59;;;;;;;2.90;1.30;;;;;;;;;;4957152;28;20526;-68
2023/01/11 10:59:33;;;;;;;3.28;1.42;;;;;;;;;;4961158;28;20095;-76
2023/01/11 11:02:21;;;;;;;2.35;1.20;;;;;;;;;;4953163;28;20056;-73
2023/01/11 11:04:52;;;;;;;2.70;1.30;;;;;;;;;;4955812;28;20051;-72
2023/01/11 11:07:41;;;;;;;2.70;1.40;;;;;;;;;;4956198;28;20464;-68
2023/01/11 11:10:13;;;;;;;2.83;1.50;;;;;;;;;;4953438;28;20067;-69
2023/01/11 11:12:55;;;;;;;1.83;1.30;;;;;;;;;;4958290;28;20726;-68
2023/01/11 11:15:54;;;;;;;8.07;1.73;;;;;;;;;;4961586;28;20527;-68
2023/01/11 11:18:21;;;;;;;3.78;1.30;;;;;;;;;;4948722;28;20047;-67
2023/01/11 11:20:46;;;;;;;3.65;1.38;;;;;;;;;;4960401;28;20382;-66
2023/01/11 11:23:15;;;;;;;2.30;1.13;;;;;;;;;;4952941;28;20055;-74
2023/01/11 11:25:47;;;;;;;5.40;1.80;;;;;;;;;;4950434;28;20070;-68
2023/01/11 11:28:13;;;;;;;2.20;1.48;;;;;;;;;;4955880;28;20109;-81
2023/01/11 11:30:44;;;;;;;2.72;1.33;;;;;;;;;;4958746;28;20059;-71
2023/01/11 11:33:34;;;;;;;3.80;1.48;;;;;;;;;;4958612;28;20104;-71
2023/01/11 11:36:04;;;;;;;4.60;2.00;;;;;;;;;;4964908;28;20050;-77
2023/01/11 11:38:40;;;;;;;2.20;1.40;;;;;;;;;;4961074;28;20110;-73
2023/01/11 11:41:07;;;;;;;2.40;1.30;;;;;;;;;;4964085;28;20097;-69
2023/01/11 11:43:36;;;;;;;2.03;1.50;;;;;;;;;;4966468;28;20115;-68
2023/01/11 11:46:22;;;;;;;4.72;1.38;;;;;;;;;;4961068;28;20143;-71
2023/01/11 11:49:12;;;;;;;1.63;1.00;;;;;;;;;;4957345;28;20051;-69
2023/01/11 11:51:40;;;;;;;2.78;1.45;;;;;;;;;;4956636;28;20090;-73
2023/01/11 11:54:13;;;;;;;4.60;1.42;;;;;;;;;;4961468;28;20053;-68
2023/01/11 11:56:40;;;;;;;3.65;1.60;;;;;;;;;;4959281;28;20059;-66
2023/01/11 11:59:12;;;;;;;2.05;1.10;;;;;;;;;;4948504;28;20043;-69
2023/01/11 12:01:45;;;;;;;1.30;1.00;;;;;;;;;;4952973;28;20560;-75
2023/01/11 12:04:18;;;;;;;11.88;1.50;;;;;;;;;;4957170;28;20069;-75
2023/01/11 12:06:49;;;;;;;2.35;0.95;;;;;;;;;;4963539;28;20510;-67
2023/01/11 12:09:35;;;;;;;1.67;1.17;;;;;;;;;;4955552;28;20114;-72
2023/01/11 12:12:02;;;;;;;1.55;1.20;;;;;;;;;;4966989;28;20066;-74
2023/01/11 12:14:30;;;;;;;2.33;1.10;;;;;;;;;;4957734;28;20063;-76
2023/01/11 12:16:57;;;;;;;2.63;1.17;;;;;;;;;;4954110;28;20089;-70
2023/01/11 12:19:46;;;;;;;8.60;1.33;;;;;;;;;;4953057;28;20051;-69
2023/01/11 12:22:23;;;;;;;2.55;1.10;;;;;;;;;;4956640;28;20051;-70
2023/01/11 12:25:14;;;;;;;2.83;1.35;;;;;;;;;;4955283;28;20050;-72
2023/01/11 12:27:51;;;;;;;3.10;1.30;;;;;;;;;;4953120;28;20058;-73
2023/01/11 12:30:25;;;;;;;3.22;1.48;;;;;;;;;;4960200;28;20448;-71
2023/01/11 12:32:58;;;;;;;3.80;1.40;;;;;;;;;;4964450;28;20144;-69
2023/01/11 12:35:51;;;;;;;5.30;1.30;;;;;;;;;;4956649;28;20204;-76
2023/01/11 12:38:42;;;;;;;5.70;1.40;;;;;;;;;;4960750;28;20496;-65
2023/01/11 12:41:16;;;;;;;1.88;1.40;;;;;;;;;;4963023;28;20051;-75
2023/01/11 12:43:58;;;;;;;4.65;1.52;;;;;;;;;;4954917;28;20448;-66
2023/01/11 12:46:30;;;;;;;3.40;2.00;;;;;;;;;;4955986;28;20061;-74
2023/01/11 12:49:22;;;;;;;2.25;1.27;;;;;;;;;;4960610;28;20397;-75
2023/01/11 12:51:57;;;;;;;3.25;1.70;;;;;;;;;;4960980;28;20062;-80
2023/01/11 12:54:40;;;;;;;;;;;;;;;;;;4963302;28;20100;-70
2023/01/11 12:57:27;;;;;;;10.05;2.00;;;;;;;;;;4958964;28;19922;-74
2023/01/11 13:00:11;;;;;;;1.98;1.40;;;;;;;;;;4959202;28;20215;-75
2023/01/11 13:02:46;;;;;;;;;;;;;;;;;;4956858;28;20584;-69
2023/01/11 13:05:47;;;;;;;2.53;1.77;;;;;;;;;;4961737;28;19926;-72
2023/01/11 13:08:39;;;;;;;3.15;1.50;;;;;;;;;;4940068;28;20577;-69
2023/01/11 13:11:35;;;;;;;1.48;1.10;;;;;;;;;;4955795;28;20138;-69
2023/01/11 13:14:25;;;;;;;1.73;1.00;;;;;;;;;;4954402;28;20066;-68
2023/01/11 13:17:04;;;;;;;3.63;1.27;;;;;;;;;;4953237;28;20055;-71
2023/01/11 13:19:52;;;;;;;2.95;0.90;;;;;;;;;;4952146;28;20519;-66
2023/01/11 13:22:22;;;;;;;2.72;1.10;;;;;;;;;;4954441;28;20078;-79
2023/01/11 13:24:50;;;;;;;2.45;1.27;;;;;;;;;;4958646;28;20042;-77
2023/01/11 13:27:21;;;;;;;3.15;1.25;;;;;;;;;;4955258;28;20425;-67
2023/01/11 13:29:52;;;;;;;3.83;1.00;;;;;;;;;;4963821;28;20488;-66
2023/01/11 13:32:25;;;;;;;3.05;1.52;;;;;;;;;;4963819;28;20105;-69
2023/01/11 13:34:57;;;;;;;4.32;1.23;;;;;;;;;;4963595;28;20677;-77
2023/01/11 13:37:58;;;;;;;1.05;0.80;;;;;;;;;;4957617;28;20504;-72
2023/01/11 13:40:41;;;;;;;5.32;1.20;;;;;;;;;;4958033;28;20058;-72
2023/01/11 13:43:21;;;;;;;3.58;1.20;;;;;;;;;;4969240;28;20050;-68
2023/01/11 13:45:54;;;;;;;4.05;1.60;;;;;;;;;;4970677;28;20057;-73
2023/01/11 13:48:38;;;;;;;1.50;0.95;;;;;;;;;;4964953;28;20047;-70
2023/01/11 13:51:37;;;;;;;1.67;1.25;;;;;;;;;;4956667;28;20061;-69
2023/01/11 13:54:07;;;;;;;4.90;1.10;;;;;;;;;;4965972;28;20057;-68
2023/01/11 13:56:38;;;;;;;1.92;1.08;;;;;;;;;;4953254;28;20146;-67
2023/01/11 13:59:11;;;;;;;3.10;1.27;;;;;;;;;;4953624;28;20058;-73
2023/01/11 14:01:49;;;;;;;2.35;1.20;;;;;;;;;;4952193;28;20138;-72
2023/01/11 14:04:29;;;;;;;3.25;1.13;;;;;;;;;;4952121;28;20066;-67
2023/01/11 14:07:22;;;;;;;3.47;1.15;;;;;;;;;;4959418;28;20054;-75
2023/01/11 14:10:18;;;;;;;3.67;1.10;;;;;;;;;;4955888;28;20051;-74
2023/01/11 14:13:06;;;;;;;7.50;1.98;;;;;;;;;;4950678;28;20055;-70
2023/01/11 14:15:56;;;;;;;1.50;0.88;;;;;;;;;;4955277;28;20051;-74
2023/01/11 14:18:40;;;;;;;3.53;1.10;;;;;;;;;;4954092;28;20047;-68
2023/01/11 14:21:28;;;;;;;1.65;1.08;;;;;;;;;;4957743;28;20087;-68
2023/01/11 14:23:54;;;;;;;1.30;0.82;;;;;;;;;;4955989;28;21098;-77
2023/01/11 14:26:25;;;;;;;2.58;1.13;;;;;;;;;;4959090;28;20535;-80
2023/01/11 14:28:58;;;;;;;2.60;1.40;;;;;;;;;;4954717;28;20047;-75
2023/01/11 14:31:42;;;;;;;2.33;1.05;;;;;;;;;;4958260;28;20441;-68
2023/01/11 14:34:08;;;;;;;;;;;;;;;;;;4956834;28;20066;-77
2023/01/11 14:36:43;;;;;;;2.50;0.88;;;;;;;;;;4955493;28;19926;-70
2023/01/11 14:39:31;;;;;;;4.60;1.35;;;;;;;;;;4953753;28;20410;-66
2023/01/11 14:42:02;;;;;;;5.00;2.38;;;;;;;;;;4960712;28;20042;-69
2023/01/11 14:44:34;;;;;;;3.25;1.00;;;;;;;;;;4957929;28;20501;-69
2023/01/11 14:47:27;;;;;;;2.95;1.38;;;;;;;;;;4957534;28;20811;-68
2023/01/11 14:50:28;;;;;;;3.40;2.15;;;;;;;;;;4953686;28;20051;-68
2023/01/11 14:52:58;;;;;;;7.22;1.10;;;;;;;;;;4951621;28;20050;-71
2023/01/11 14:55:30;;;;;;;3.63;1.20;;;;;;;;;;4956953;28;20046;-73
2023/01/11 14:57:56;;;;;;;3.10;0.77;;;;;;;;;;4964228;28;20050;-72
2023/01/11 15:00:22;;;;;;;1.33;0.80;;;;;;;;;;4954748;28;20130;-70
2023/01/11 15:03:18;;;;;;;1.60;0.90;;;;;;;;;;4953493;28;20047;-68
2023/01/11 15:06:08;;;;;;;1.77;1.05;;;;;;;;;;4943176;28;20600;-79
2023/01/11 15:08:53;;;;;;;2.38;1.38;;;;;;;;;;4930040;28;20046;-68
2023/01/11 15:11:23;;;;;;;2.90;1.20;;;;;;;;;;4941787;28;21770;-73
2023/01/11 15:14:23;;;;;;;2.70;1.15;;;;;;;;;;4939146;29;20199;-76
2023/01/11 15:19:42;;;;;;;3.00;1.15;;;;;;;;;;4938807;29;20509;-70
2023/01/11 15:22:29;;;;;;;2.90;1.10;;;;;;;;;;4941534;29;20051;-71
2023/01/11 15:25:20;;;;;;;3.65;1.35;;;;;;;;;;4938501;28;20055;-70
2023/01/11 15:27:47;;;;;;;8.00;1.67;;;;;;;;;;4933292;28;20102;-77
2023/01/11 15:30:49;;;;;;;7.47;1.48;;;;;;;;;;4935361;28;20086;-68
2023/01/11 15:33:15;;;;;;;8.68;1.20;;;;;;;;;;4920104;29;20074;-75
2023/01/11 15:36:05;;;;;;;2.88;1.10;;;;;;;;;;4934883;28;20051;-70
2023/01/11 15:38:38;;;;;;;3.83;1.20;;;;;;;;;;4944483;28;20050;-74
2023/01/11 15:44:21;;;;;;;2.38;1.40;;;;;;;;;;4966649;28;20067;-71
2023/01/11 15:47:05;;;;;;;6.32;1.52;;;;;;;;;;4967113;28;20043;-68
2023/01/11 15:49:40;;;;;;;;;;;;;;;;;;4961178;28;20598;-73